Decoded Metar for YPEA (PEARCE (AUS-AFB) in AUSTRALIA) (IATA:N/A) | Meteo·Mobile Aviation Weather
aviador You're here:

YPEA Decoded Metar

PEARCE (AUS-AFB) in AUSTRALIA
Report Time2018-11-18 08:00:00
UTC Time2018-11-18 08:44:57
Flight Rules vfr VFR
Wind230° at 14 kt
W.Decomp.*RWY 23: 14.0 kt HW 0.2 kt RCW
RWY 18: 8.8 kt HW 10.9 kt RCW
W.Rank230° ranks 8
Current wind is above 230° avg. (9.4)
Visibility9999 m
Phenomena:N/A
Clouds:Scattered 029 Hf
Broken 035 Hf
Broken 040 Hf
Expected CloudBase > 3,200 ft AGL from Temp-Dew spread
Ceiling3,500 ft
Temp21°C (ISA +6)
Dew Point13°C (60% RH)
AAT16.9°C
QNH1013 hPa
Density Alt1,099 ft
Elevation161 ft
Report Wrong Elevation
Raw Report
METAR YPEA 180800Z AUTO 23014KT 9999 // SCT029 BKN035 BKN040 21/13 Q1013=

Extra information for YPEA:More info

Metar Taf Metar & Taf Last 4 Metars F.Rules Stats Wind Profile Meteogram Temp Stats Airport Information Weather charts Add Link Nearby VenuesMetar ALERT Operation Metar Decoded Social comments